Mukdahan, Thailand

7:45 AM ICT on July 26, 2016 (GMT +0700)
Nakhon Phanom | | Change Station

Elev 584 ft 17.38 °N, 104.64 °E | Updated 15 minutes ago

Mostly Cloudy
Mostly Cloudy
79 °F
Feels Like 79 °F
N
2
Wind Variable Wind from Variable

Today
High -- | Low -- °F
--% Chance of Precip.
Yesterday
High -- | Low -- °F
Precip. -- in
Pressure 29.83 in
Visibility 6.2 miles
Clouds Few 800 ft
Mostly Cloudy 3400 ft
Mostly Cloudy 4700 ft
Dew Point 75 °F
Humidity 89%
Rainfall 0.00 in
Snow Depth Not available.
5:39 AM 6:35 PM
Waning Gibbous, 61% visible
METAR VTUW 260030Z AUTO VRB02KT 9999 FEW008/// BKN034/// BKN047/// 26/24 Q1010 A2983
Pressure 29.83 in
Visibility 6.2 miles
Clouds Few 800 ft
Mostly Cloudy 3400 ft
Mostly Cloudy 4700 ft
Dew Point 75 °F
Humidity 89%
Rainfall 0.00 in
Snow Depth Not available.
5:39 AM 6:35 PM
Waning Gibbous, 61% visible
METAR VTUW 260030Z AUTO VRB02KT 9999 FEW008/// BKN034/// BKN047/// 26/24 Q1010 A2983

10-Day Weather Forecast

No radar image for this location.
×

Almanac

Astronomy

Jul. 26, 2016 Rise Set
Actual Time
Civil Twilight
Nautical Twilight
Astronomical Twilight
Moon
Length of Visible Light
Length of Day
Tomorrow will be .
, % of the Moon is Illuminated

Today's Extremes

Country Highs Country Lows

Community

WunderPhotos

Upload Photos

1,927,479 photos uploaded!

WunderBlog® & News

Nearby

Air Quality

  Air Quality AQ Index Pollutant
Not available.

Snow Depth

Station Depth Elevation

Earthquake Activity

City Distance Mag. Time & Date
Minimum magnitude displayed is 2.5.

Coastal Water Temperatures

Place Temperature

Stations

Nearby Weather Stations

Station Location Temp. Windchill Dew Point Humidity Wind Precip. Elev Updated Type